Latest Weather Observations for Coldstream

IDV60801

Issued at 9:32 pm EDT Monday 27 March 2017 (issued every 30 minutes, with the page automatically refreshed every 10 minutes)

About weather observations | Map of weather stations | Latest weather observations for VIC | Other Formats
Station Details ID: 086383 Name: COLDSTREAM Lat: -37.72 Lon: 145.41 Height: 83.0 m
Data from the previous 72 hours. | See also: Recent months at Coldstream
Date/Time
EDT
Temp
°C
App
Temp
°C
Dew
Point
°C
Rel
Hum
%
Delta-T
°C
Wind Press
QNH
hPa
Press
MSL
hPa
Rain since
9am
mm
Dir  Spd
km/h
Gust
km/h
Spd
kts
Gust
kts
27/09:30pm 13.3 12.7 11.7 90 0.9 E 6 11 3 6 1013.5 1013.4 10.4
27/09:00pm 13.8 13.6 12.9 94 0.5 SSE 6 9 3 5 1013.3 1013.2 10.4
27/08:30pm 14.1 13.9 13.5 96 0.3 ENE 7 11 4 6 1012.8 1012.7 10.4
27/08:00pm 14.0 14.5 12.7 92 0.7 ESE 2 6 1 3 1012.5 1012.4 10.4
27/07:30pm 15.7 15.0 14.4 92 0.7 E 11 15 6 8 1012.1 1012.0 10.4
27/07:00pm 16.9 17.1 14.7 87 1.3 ENE 7 9 4 5 1012.2 1012.1 10.4
27/06:30pm 17.5 18.0 15.0 85 1.5 E 6 9 3 5 1012.3 1012.2 10.4
27/06:00pm 17.4 19.4 15.9 91 0.9 CALM 0 0 0 0 1012.2 1012.1 10.4
27/05:30pm 16.8 18.8 16.0 95 0.5 CALM 0 0 0 0 1012.1 1012.0 10.4
27/05:00pm 16.3 16.4 15.5 95 0.5 NE 9 13 5 7 1012.6 1012.5 10.2
27/04:30pm 16.5 18.3 15.5 94 0.6 CALM 0 2 0 1 1012.0 1011.9 9.0
27/04:00pm 16.5 14.9 14.9 90 0.9 WSW 17 24 9 13 1011.9 1011.8 7.8
27/03:30pm 17.8 14.9 15.2 85 1.5 WSW 24 37 13 20 1010.7 1010.6 5.8
27/03:00pm 18.5 14.3 17.2 92 0.8 SW 35 57 19 31 1008.9 1008.7 5.4
27/02:30pm 19.6 13.6 17.0 85 1.6 SW 44 65 24 35 1007.8 1007.6 0.6
27/02:14pm 24.4 19.9 15.3 57 5.5 WSW 33 63 18 34 1006.5 1006.3 0.0
27/02:09pm 28.3 25.6 14.5 43 8.3 WNW 22 61 12 33 1006.3 1006.1 0.0
27/02:00pm 31.4 29.3 16.2 40 9.6 NNW 22 39 12 21 1005.4 1005.2 0.0
27/01:30pm 31.7 29.9 16.0 38 9.8 N 20 35 11 19 1005.3 1005.1 0.0
27/01:00pm 32.7 27.2 15.7 36 10.7 N 39 59 21 32 1004.6 1004.4 0.0
27/12:30pm 32.0 26.4 15.5 37 10.3 N 39 63 21 34 1004.4 1004.2 0.0
27/12:00pm 31.3 24.2 14.9 37 10.1 N 46 67 25 36 1004.3 1004.1 0.0
27/11:46am 31.0 27.2 14.6 37 10.0 N 28 57 15 31 1004.5 1004.3 0.0
27/11:30am 30.8 27.0 14.8 37 9.8 NNE 28 44 15 24 1005.2 1005.0 0.0
27/11:00am 29.8 25.0 14.0 38 9.6 N 32 50 17 27 1005.5 1005.3 0.0
27/10:37am 29.8 26.0 14.7 39 9.2 NNE 28 48 15 26 1006.0 1005.8 0.0
27/10:30am 29.3 26.3 14.7 41 8.9 NNE 24 41 13 22 1006.0 1005.8 0.0
27/10:00am 28.3 26.1 14.9 44 8.2 NNE 20 32 11 17 1006.4 1006.2 0.0
27/09:30am 27.7 26.0 14.7 45 7.9 NNE 17 26 9 14 1006.5 1006.3 0.0
27/09:00am 27.1 25.8 14.8 47 7.5 NNE 15 24 8 13 1006.9 1006.7 0.0
27/08:30am 26.7 25.3 14.5 47 7.3 NNE 15 26 8 14 1006.6 1006.4 0.0
27/08:00am 26.3 25.0 14.7 48 7.0 NNE 15 20 8 11 1006.6 1006.4 0.0
27/07:30am 25.9 24.6 14.7 50 6.7 NNE 15 28 8 15 1006.7 1006.5 0.0
27/07:00am 25.6 24.0 15.0 52 6.4 NNE 17 30 9 16 1006.7 1006.5 0.0
27/06:30am 24.9 24.5 16.1 58 5.4 NNE 13 22 7 12 1007.2 1007.0 0.0
27/06:14am 22.9 23.3 18.2 75 3.0 N 13 20 7 11 1007.4 1007.2 0.0
27/06:00am 17.8 20.2 17.0 95 0.5 CALM 0 0 0 0 1007.5 1007.3 0.0
27/05:30am 18.3 20.7 18.0 98 0.2 WSW 2 6 1 3 1007.9 1007.7 0.0
27/05:00am 17.8 19.7 17.6 99 0.1 SSW 4 9 2 5 1008.1 1007.9 0.0
27/04:30am 16.7 18.5 16.5 99 0.1 SE 2 9 1 5 1007.9 1007.7 0.0
27/04:00am 16.6 18.8 16.4 99 0.1 CALM 0 0 0 0 1008.2 1008.0 0.0
27/03:30am 16.6 17.6 16.4 99 0.1 S 6 13 3 7 1008.7 1008.5 0.0
27/03:00am 16.2 18.2 16.0 99 0.1 CALM 0 0 0 0 1008.9 1008.7 0.0
27/02:30am 16.3 17.6 16.1 99 0.1 S 4 7 2 4 1009.5 1009.3 0.0
27/02:00am 16.6 18.0 16.4 99 0.1 E 4 7 2 4 1009.8 1009.6 0.0
27/01:30am 16.6 17.4 16.4 99 0.1 SSW 7 9 4 5 1010.2 1010.0 0.0
27/01:00am 16.4 18.1 16.2 99 0.1 SSE 2 7 1 4 1010.7 1010.6 0.0
27/12:30am 15.9 17.4 15.6 98 0.2 SSW 2 7 1 4 1011.1 1011.0 0.0
27/12:00am 15.8 17.5 15.2 96 0.3 CALM 0 0 0 0 1011.3 1011.2 0.0
 
Date/Time
EDT
Temp
°C
App
Temp
°C
Dew
Point
°C
Rel
Hum
%
Delta-T
°C
Wind Press
QNH
hPa
Press
MSL
hPa
Rain since
9am
mm
Dir  Spd
km/h
Gust
km/h
Spd
kts
Gust
kts
26/11:30pm 16.1 17.8 15.3 95 0.5 CALM 0 0 0 0 1011.7 1011.6 0.0
26/11:00pm 16.6 18.4 15.6 94 0.6 CALM 0 6 0 3 1012.0 1011.9 0.0
26/10:30pm 17.3 19.4 16.2 93 0.7 CALM 0 0 0 0 1012.3 1012.2 0.0
26/10:00pm 18.2 20.5 16.7 91 0.9 CALM 0 0 0 0 1012.3 1012.2 0.0
26/09:30pm 18.8 21.0 16.6 87 1.3 CALM 0 0 0 0 1012.4 1012.3 0.0
26/09:00pm 19.8 22.1 16.8 83 1.8 CALM 0 0 0 0 1012.3 1012.2 0.0
26/08:30pm 21.7 23.5 17.5 77 2.6 SW 4 7 2 4 1012.1 1012.0 0.0
26/08:00pm 23.5 25.1 18.2 72 3.3 SSE 7 13 4 7 1011.6 1011.5 0.0
26/07:30pm 24.2 25.6 17.9 68 4.0 SSE 7 13 4 7 1011.5 1011.4 0.0
26/07:00pm 25.8 26.7 18.5 64 4.7 SSE 11 20 6 11 1011.4 1011.3 0.0
26/06:30pm 28.7 30.5 18.2 53 6.7 WNW 6 7 3 4 1011.2 1011.1 0.0
26/06:00pm 29.5 31.8 17.7 49 7.5 NW 2 9 1 5 1011.1 1011.0 0.0
26/05:30pm 29.0 29.9 17.5 49 7.3 WNW 9 15 5 8 1011.1 1011.0 0.0
26/05:00pm 29.9 31.7 18.3 49 7.5 W 6 11 3 6 1010.9 1010.8 0.0
26/04:30pm 28.9 30.7 18.4 53 6.7 WSW 6 11 3 6 1011.2 1011.1 0.0
26/04:00pm 28.7 31.0 18.5 54 6.6 W 4 11 2 6 1011.4 1011.3 0.0
26/03:30pm 28.8 30.7 18.6 54 6.6 NW 6 13 3 7 1011.7 1011.6 0.0
26/03:00pm 27.6 29.7 18.9 59 5.6 SSW 6 11 3 6 1012.0 1011.9 0.0
26/02:30pm 26.0 27.8 18.4 63 4.8 WNW 6 11 3 6 1012.5 1012.4 0.0
26/02:00pm 26.6 28.9 18.5 61 5.2 NNW 4 9 2 5 1013.0 1012.9 0.0
26/01:30pm 25.8 28.3 18.2 63 4.8 SSE 2 9 1 5 1013.4 1013.3 0.0
26/01:00pm 24.0 25.7 18.0 69 3.8 SSW 6 11 3 6 1014.2 1014.0 0.0
26/12:30pm 24.2 26.0 18.4 70 3.7 W 6 13 3 7 1014.8 1014.6 0.0
26/12:00pm 23.4 25.1 17.2 68 3.8 NE 4 7 2 4 1015.3 1015.1 0.0
26/11:30am 23.2 25.5 17.7 71 3.4 NNW 2 7 1 4 1015.7 1015.5 0.0
26/11:00am 21.9 24.2 16.8 73 3.1 CALM 0 6 0 3 1015.7 1015.5 0.0
26/10:30am 21.3 22.9 16.9 76 2.7 SSW 4 11 2 6 1015.8 1015.6 0.0
26/10:00am 21.0 22.2 17.4 80 2.2 S 7 13 4 7 1015.6 1015.4 0.0
26/09:30am 20.2 21.4 17.4 84 1.7 SSE 7 13 4 7 1015.3 1015.1 0.0
26/09:00am 19.6 21.1 18.9 96 0.4 SE 9 13 5 7 1015.0 1014.8 0.0
26/08:30am 17.9 20.6 17.7 99 0.1 CALM 0 0 0 0 1015.1 1014.9 0.0
26/08:00am 17.0 19.3 16.8 99 0.1 CALM 0 0 0 0 1014.9 1014.7 0.0
26/07:30am 15.8 17.5 15.3 97 0.3 CALM 0 0 0 0 1014.6 1014.4 0.0
26/07:00am 16.4 18.2 15.6 95 0.5 CALM 0 0 0 0 1014.6 1014.4 0.0
26/06:30am 17.6 19.9 16.8 95 0.5 CALM 0 0 0 0 1014.5 1014.3 0.0
26/06:00am 18.1 20.5 17.1 94 0.6 CALM 0 0 0 0 1014.1 1013.9 0.0
26/05:30am 18.3 20.8 17.3 94 0.6 CALM 0 0 0 0 1014.2 1014.0 0.0
26/05:00am 18.5 21.0 17.3 93 0.7 CALM 0 0 0 0 1013.7 1013.6 0.0
26/04:30am 18.8 21.4 17.6 93 0.7 CALM 0 0 0 0 1013.9 1013.8 0.0
26/04:00am 18.8 21.4 17.5 92 0.8 CALM 0 0 0 0 1014.1 1013.9 0.0
26/03:30am 18.9 21.5 17.4 91 0.9 CALM 0 0 0 0 1014.2 1014.0 0.0
26/03:00am 19.2 21.8 17.5 90 1.0 CALM 0 0 0 0 1014.3 1014.1 0.0
26/02:30am 19.2 20.4 17.3 89 1.2 WNW 7 9 4 5 1014.5 1014.3 0.0
26/02:00am 19.3 20.5 17.3 88 1.2 W 7 9 4 5 1014.6 1014.4 0.0
26/01:30am 19.5 20.7 17.3 87 1.3 NW 7 11 4 6 1014.3 1014.1 0.0
26/01:00am 19.9 21.3 17.3 85 1.6 WNW 6 9 3 5 1014.3 1014.1 0.0
26/12:30am 20.0 22.6 18.5 91 0.9 NW 2 11 1 6 1014.5 1014.3 0.0
26/12:00am 20.1 23.1 18.4 90 1.1 CALM 0 0 0 0 1014.2 1014.0 0.0
 
Date/Time
EDT
Temp
°C
App
Temp
°C
Dew
Point
°C
Rel
Hum
%
Delta-T
°C
Wind Press
QNH
hPa
Press
MSL
hPa
Rain since
9am
mm
Dir  Spd
km/h
Gust
km/h
Spd
kts
Gust
kts
25/11:30pm 20.0 22.9 18.3 90 1.1 CALM 0 0 0 0 1014.3 1014.1 0.0
25/11:00pm 19.7 21.3 17.8 89 1.2 ESE 6 7 3 4 1014.1 1013.9 0.0
25/10:30pm 20.1 22.5 17.9 87 1.4 SW 2 7 1 4 1014.1 1013.9 0.0
25/10:00pm 20.5 23.2 17.7 84 1.7 CALM 0 0 0 0 1013.9 1013.8 0.0
25/09:30pm 21.2 23.9 17.8 81 2.1 CALM 0 6 0 3 1013.3 1013.2 0.0
25/09:00pm 21.1 22.5 17.7 81 2.1 ESE 7 9 4 5 1013.1 1013.0 0.0
25/08:30pm 21.7 23.2 18.1 80 2.2 N 7 11 4 6 1012.4 1012.3 0.0
25/08:00pm 22.0 22.7 18.0 78 2.5 NNE 11 17 6 9 1011.8 1011.7 0.0
25/07:30pm 22.4 24.5 18.0 76 2.8 NE 4 7 2 4 1011.8 1011.7 0.0
25/07:00pm 22.2 23.1 18.4 79 2.4 N 11 19 6 10 1011.6 1011.5 0.0
25/06:30pm 23.2 24.0 18.1 73 3.2 ENE 11 15 6 8 1011.2 1011.1 0.0
25/06:00pm 23.0 24.1 17.0 69 3.7 N 7 11 4 6 1011.1 1011.0 0.0
25/05:30pm 23.9 25.3 17.9 69 3.8 N 7 15 4 8 1011.0 1010.9 0.0
25/05:00pm 26.4 27.4 16.9 56 5.9 NNE 7 15 4 8 1010.7 1010.6 0.0
25/04:30pm 26.9 26.8 15.0 48 7.2 N 9 13 5 7 1010.6 1010.5 0.0
25/04:00pm 27.5 27.4 16.1 49 7.1 NNE 11 19 6 10 1010.7 1010.6 0.0
25/03:30pm 25.9 25.8 15.9 54 6.1 NNE 11 20 6 11 1011.2 1011.1 0.0
25/03:00pm 26.3 24.7 16.0 53 6.3 N 19 26 10 14 1011.5 1011.4 0.0
25/02:30pm 27.9 27.0 16.8 50 6.9 NNE 17 24 9 13 1011.6 1011.5 0.0
25/02:00pm 25.9 24.4 16.7 57 5.7 N 20 30 11 16 1012.2 1012.1 0.0
25/01:30pm 26.8 25.5 16.7 54 6.3 NNE 19 26 10 14 1012.3 1012.2 0.0
25/01:00pm 26.9 25.3 16.5 53 6.5 N 20 32 11 17 1012.7 1012.6 0.0
25/12:30pm 25.8 23.2 15.8 54 6.1 N 24 33 13 18 1013.1 1013.0 0.0
25/12:00pm 25.7 23.9 16.0 55 5.9 N 20 32 11 17 1013.4 1013.3 0.0
25/11:30am 25.1 23.2 15.7 56 5.7 N 20 30 11 16 1013.7 1013.6 0.0
25/11:00am 24.9 23.4 16.3 59 5.3 N 19 32 10 17 1013.9 1013.8 0.0
25/10:30am 23.5 21.9 16.1 63 4.5 N 19 28 10 15 1013.7 1013.6 0.0
25/10:00am 23.1 21.8 15.9 64 4.4 N 17 28 9 15 1013.8 1013.7 0.0
25/09:30am 22.7 22.6 16.0 66 4.1 N 11 20 6 11 1013.5 1013.4 0.0
25/09:00am 22.0 21.0 15.6 67 3.8 N 15 28 8 15 1013.2 1013.1 0.0
25/08:30am 21.2 20.9 15.5 70 3.4 N 11 19 6 10 1013.0 1012.9 0.0
25/08:00am 18.9 20.4 15.6 81 2.0 NNW 2 7 1 4 1013.1 1013.0 0.0
25/07:30am 17.6 19.3 16.1 91 0.9 N 2 9 1 5 1012.8 1012.7 0.0
25/07:00am 17.0 19.0 15.9 93 0.6 CALM 0 0 0 0 1012.6 1012.5 0.0
25/06:30am 16.8 18.7 15.7 93 0.6 CALM 0 0 0 0 1012.2 1012.1 0.0
25/06:00am 16.9 18.7 15.6 92 0.8 CALM 0 0 0 0 1012.5 1012.4 0.0
25/05:30am 16.4 18.2 15.4 94 0.6 CALM 0 0 0 0 1012.3 1012.2 0.0
25/05:00am 16.5 18.3 15.5 94 0.6 CALM 0 6 0 3 1012.3 1012.2 0.0
25/04:30am 16.2 17.6 15.4 95 0.5 SSE 2 9 1 5 1011.9 1011.8 0.0
25/04:00am 16.0 16.4 15.2 95 0.5 E 7 11 4 6 1013.0 1012.9 0.0
25/03:30am 16.2 16.8 15.4 95 0.5 NNE 6 9 3 5 1014.1 1013.9 0.0
25/03:00am 16.1 17.2 15.6 97 0.3 NNE 4 7 2 4 1014.4 1014.2 0.0
25/02:30am 15.4 15.9 14.9 97 0.3 N 6 7 3 4 1014.8 1014.6 0.0
25/02:00am 15.1 16.5 14.5 96 0.3 CALM 0 0 0 0 1014.7 1014.5 0.0
25/01:30am 15.4 16.8 14.4 94 0.6 CALM 0 6 0 3 1014.8 1014.6 0.0
25/01:00am 15.3 16.6 14.2 93 0.6 CALM 0 4 0 2 1014.7 1014.5 0.0
25/12:30am 15.5 16.9 14.4 93 0.6 CALM 0 0 0 0 1014.6 1014.4 0.0
25/12:00am 15.3 16.5 13.8 91 0.8 CALM 0 0 0 0 1015.2 1015.0 0.0
 
Date/Time
EDT
Temp
°C
App
Temp
°C
Dew
Point
°C
Rel
Hum
%
Delta-T
°C
Wind Press
QNH
hPa
Press
MSL
hPa
Rain since
9am
mm
Dir  Spd
km/h
Gust
km/h
Spd
kts
Gust
kts
24/11:30pm 16.1 17.4 14.1 88 1.1 CALM 0 0 0 0 1015.6 1015.4 0.0
24/11:00pm 16.9 18.2 14.0 83 1.7 CALM 0 0 0 0 1015.7 1015.5 0.0
24/10:30pm 17.6 19.0 14.3 81 1.9 CALM 0 6 0 3 1015.9 1015.7 0.0
24/10:00pm 18.2 17.9 14.5 79 2.1 SE 9 13 5 7 1015.7 1015.5 0.0

Other Formats:

Comma delimited format used in spreadsheet applications
http://www.bom.gov.au/fwo/IDV60801/IDV60801.94864.axf

JavaScript Object Notation format (JSON) in row-major order
http://www.bom.gov.au/fwo/IDV60801/IDV60801.94864.json